KSNK/SNK METAR and TAF weather

Enter ICAO airport designator
Station Type Date Time Source
KSNK METAR 2020/04/05 16:55 UTC NOAA

KSNK 051655Z AUTO 09009KT 1/2SM FG OVC002 10/10 A3005 RMK AO2 T00970097


Station Type Date Time Source
KSNK Decoded METAR 2020/04/05 16:55 UTC NOAA

Snyder, Winston Field Airport, TX, United States (KSNK) 32-41-36N 100-57-01W
Apr 05, 2020 - 12:55 PM EDT / 2020.04.05 1655 UTC
Wind: from the E (090 degrees) at 10 MPH (9 KT):0
Visibility: 1/2 mile(s):0
Sky conditions: overcast
Weather: fog
Temperature: 49.5 F (9.7 C)
Dew Point: 49.5 F (9.7 C)
Relative Humidity: 100%
Pressure (altimeter): 30.05 in. Hg (1017 hPa)
ob: KSNK 051655Z AUTO 09009KT 1/2SM FG OVC002 10/10 A3005 RMK AO2 T00970097
cycle: 17

Station Type Date Time Source
KSNK TAF UTC NOAA

Error!

Example: see airport list